Carbondale, IL (62901)

2:29 PM CDT on July 28, 2016 (GMT -0500)
Carbondale City Hall | | Change Station

Elev 430 ft 37.73 °N, 89.22 °W | Updated 1 minute ago

Mostly Cloudy
Mostly Cloudy
88.4 °F
Feels Like 99 °F
N
0.0
Wind Variable Wind from SW
Gusts 0.0 mph

Today
High -- | Low -- °F
--% Chance of Precip.
Yesterday
High -- | Low -- °F
Precip. -- in
Pressure 29.87 in
Visibility 10.0 miles
Clouds Scattered Clouds 2500 ft
Mostly Cloudy 5500 ft
Heat Index 99 °F
Dew Point 76 °F
Humidity 66%
Rainfall 0.00 in
Snow Depth Not available.
5:57 AM 8:08 PM
Waning Crescent, 29% visible
METAR KMDH 281852Z 19007KT 10SM SCT025 BKN055 31/23 A2989 RMK AO2 SLP115 T03110233
Pressure 29.87 in
Visibility 10.0 miles
Clouds Scattered Clouds 2500 ft
Mostly Cloudy 5500 ft
Heat Index 99 °F
Dew Point 76 °F
Humidity 66%
Rainfall 0.00 in
Snow Depth Not available.
5:57 AM 8:08 PM
Waning Crescent, 29% visible
METAR KMDH 281852Z 19007KT 10SM SCT025 BKN055 31/23 A2989 RMK AO2 SLP115 T03110233

10-Day Weather Forecast

Almanac

Astronomy

Jul. 28, 2016 Rise Set
Actual Time
Civil Twilight
Nautical Twilight
Astronomical Twilight
Moon
Length of Visible Light
Length of Day
Tomorrow will be .
, % of the Moon is Illuminated

Today's Extremes

State Highs State Lows

Community

WunderPhotos

Upload Photos

1,928,191 photos uploaded!

WunderBlog® & News

Nearby

Air Quality

  Air Quality AQ Index Pollutant
Not available.

Snow Depth

Station Depth Elevation

Earthquake Activity

City Distance Mag. Time & Date
Minimum magnitude displayed is 2.5.

Coastal Water Temperatures

Place Temperature

Stations

Nearby Weather Stations

Station Location Temp. Windchill Dew Point Humidity Wind Precip. Elev Updated Type
                   

Watches & Warnings

There are currently no watches in effect.